Time;durP1;ratioP1;P1;durP2;ratioP2;P2;SDS_P1;SDS_P2;PMS_P1;PMS_P2;Temp;Humidity;BMP_temperature;BMP_pressure;BME280_temperature;BME280_humidity;BME280_pressure;Samples;Min_cycle;Max_cycle;Signal;HPM_P1;HPM_P2
2023/05/21 00:01:47;;;;;;;1.43;0.90;;;15.20;98.20;;;;;;5073115;28;20543;-90
2023/05/21 00:04:14;;;;;;;1.50;1.00;;;15.20;98.20;;;;;;5094901;28;20445;-90
2023/05/21 00:06:41;;;;;;;1.47;0.90;;;15.20;98.20;;;;;;5096646;28;20462;-91
2023/05/21 00:09:08;;;;;;;1.50;1.00;;;15.10;98.20;;;;;;5109435;28;20972;-90
2023/05/21 00:11:34;;;;;;;1.43;0.90;;;15.10;98.20;;;;;;5094266;28;20826;-91
2023/05/21 00:14:01;;;;;;;1.47;1.00;;;15.10;98.20;;;;;;5094442;28;20452;-90
2023/05/21 00:16:28;;;;;;;1.50;1.00;;;15.10;98.20;;;;;;5094849;28;20444;-90
2023/05/21 00:18:56;;;;;;;1.43;0.97;;;15.10;98.20;;;;;;5094041;28;20567;-90
2023/05/21 00:21:24;;;;;;;1.50;1.00;;;15.10;98.20;;;;;;5093565;28;20933;-90
2023/05/21 00:23:52;;;;;;;1.50;1.00;;;15.10;98.20;;;;;;5093785;28;20488;-90
2023/05/21 00:26:20;;;;;;;1.50;1.00;;;15.00;98.20;;;;;;5101287;28;20460;-90
2023/05/21 00:28:47;;;;;;;1.50;1.00;;;15.00;98.20;;;;;;5109192;28;21021;-91
2023/05/21 00:31:14;;;;;;;1.47;1.00;;;15.00;98.20;;;;;;5099459;28;20454;-90
2023/05/21 00:33:41;;;;;;;1.50;1.00;;;15.00;98.20;;;;;;5095818;28;20466;-90
2023/05/21 00:36:13;;;;;;;1.43;0.90;;;15.00;98.20;;;;;;5099353;28;20452;-91
2023/05/21 00:38:42;;;;;;;1.43;1.00;;;15.00;98.20;;;;;;5092811;28;20484;-90
2023/05/21 00:41:11;;;;;;;1.47;1.00;;;14.90;98.20;;;;;;5093482;28;20461;-90
2023/05/21 00:43:39;;;;;;;1.50;1.10;;;14.90;98.20;;;;;;5102773;28;20525;-90
2023/05/21 00:46:06;;;;;;;1.50;1.00;;;14.90;98.20;;;;;;5101304;28;20464;-91
2023/05/21 00:48:33;;;;;;;1.50;1.00;;;14.80;98.20;;;;;;5093084;28;20476;-91
2023/05/21 00:51:01;;;;;;;1.50;1.03;;;14.80;98.20;;;;;;5109588;28;21003;-91
2023/05/21 00:53:29;;;;;;;1.50;1.10;;;14.80;98.20;;;;;;5108955;27;20495;-90
2023/05/21 00:55:57;;;;;;;1.43;1.00;;;14.70;98.20;;;;;;5098648;28;20956;-91
2023/05/21 00:58:24;;;;;;;1.43;1.00;;;14.70;98.20;;;;;;5100362;28;20482;-90
2023/05/21 01:00:54;;;;;;;1.50;1.00;;;14.70;98.20;;;;;;5095986;28;20456;-90
2023/05/21 01:03:22;;;;;;;1.47;1.00;;;14.70;98.20;;;;;;5097668;28;20552;-89
2023/05/21 01:05:52;;;;;;;1.43;1.00;;;14.60;98.20;;;;;;5092551;28;20846;-91
2023/05/21 01:08:20;;;;;;;1.50;1.00;;;14.60;98.20;;;;;;5093322;28;20476;-90
2023/05/21 01:10:51;;;;;;;1.50;1.00;;;14.60;98.20;;;;;;5094508;28;20455;-90
2023/05/21 01:13:19;;;;;;;1.50;1.00;;;14.50;98.20;;;;;;5092098;28;21008;-90
2023/05/21 01:15:47;;;;;;;1.50;1.00;;;14.50;98.20;;;;;;5089779;28;20461;-90
2023/05/21 01:18:14;;;;;;;1.50;1.00;;;14.50;98.20;;;;;;5091763;28;20491;-90
2023/05/21 01:20:46;;;;;;;1.50;0.90;;;14.50;98.20;;;;;;5089715;28;20478;-90
2023/05/21 01:23:15;;;;;;;1.50;1.10;;;14.40;98.20;;;;;;5092005;28;20529;-91
2023/05/21 01:25:42;;;;;;;1.47;1.00;;;14.40;98.20;;;;;;5092173;28;20461;-90
2023/05/21 01:28:09;;;;;;;1.50;1.00;;;14.40;98.20;;;;;;5091624;28;20487;-90
2023/05/21 01:30:37;;;;;;;1.50;1.00;;;14.40;98.20;;;;;;5094087;28;20452;-89
2023/05/21 01:33:12;;;;;;;1.50;1.00;;;14.30;98.20;;;;;;5089078;28;20452;-90
2023/05/21 01:35:43;;;;;;;1.50;1.00;;;14.30;98.20;;;;;;5089315;28;20822;-90
2023/05/21 01:38:19;;;;;;;1.47;1.00;;;14.30;98.20;;;;;;5083778;28;20484;-90
2023/05/21 01:40:52;;;;;;;1.50;1.00;;;14.30;98.20;;;;;;5094051;28;20832;-91
2023/05/21 01:43:20;;;;;;;1.50;1.00;;;14.30;98.20;;;;;;5091685;28;20463;-91
2023/05/21 01:45:49;;;;;;;1.43;1.00;;;14.30;98.20;;;;;;5078812;28;20456;-91
2023/05/21 01:48:18;;;;;;;1.50;1.00;;;14.30;98.20;;;;;;5093586;28;20556;-89
2023/05/21 01:50:47;;;;;;;1.50;1.10;;;14.30;98.20;;;;;;5090417;28;20460;-90
2023/05/21 01:53:16;;;;;;;1.50;0.97;;;14.30;98.20;;;;;;5095320;28;20475;-90
2023/05/21 01:55:43;;;;;;;1.50;1.10;;;14.20;98.20;;;;;;5091371;28;20877;-89
2023/05/21 01:58:10;;;;;;;1.50;1.00;;;14.20;98.20;;;;;;5102233;28;20479;-90
2023/05/21 02:00:38;;;;;;;1.50;0.93;;;14.20;98.20;;;;;;5092753;28;20942;-90
2023/05/21 02:03:05;;;;;;;1.47;1.00;;;14.20;98.20;;;;;;5050311;22;20498;-80
2023/05/21 02:05:32;;;;;;;1.50;1.00;;;14.20;98.20;;;;;;5031948;28;20470;-80
2023/05/21 02:08:00;;;;;;;1.47;0.97;;;14.20;98.20;;;;;;5032121;28;21170;-80
2023/05/21 02:10:28;;;;;;;1.50;1.00;;;14.20;98.20;;;;;;5031044;28;20558;-81
2023/05/21 02:12:55;;;;;;;1.50;1.00;;;14.20;98.20;;;;;;5031085;28;20466;-81
2023/05/21 02:15:23;;;;;;;1.47;1.00;;;14.20;98.20;;;;;;5031049;28;20482;-80
2023/05/21 02:17:51;;;;;;;1.50;1.00;;;14.20;98.20;;;;;;5030379;28;21100;-80
2023/05/21 02:20:19;;;;;;;1.47;1.00;;;14.20;98.20;;;;;;5031107;28;20463;-80
2023/05/21 02:22:47;;;;;;;1.50;1.00;;;14.10;98.20;;;;;;5028029;28;20457;-80
2023/05/21 02:25:17;;;;;;;1.50;1.40;;;14.10;98.20;;;;;;5031272;28;20485;-80
2023/05/21 02:27:45;;;;;;;1.47;1.00;;;14.10;98.20;;;;;;5033409;28;20467;-80
2023/05/21 02:30:14;;;;;;;1.50;1.00;;;14.10;98.20;;;;;;5031407;28;20487;-80
2023/05/21 02:32:42;;;;;;;1.50;1.00;;;14.10;98.20;;;;;;5047515;28;20553;-80
2023/05/21 02:35:10;;;;;;;1.50;1.00;;;14.10;98.20;;;;;;5046731;28;20471;-80
2023/05/21 02:37:39;;;;;;;1.50;1.00;;;14.00;98.20;;;;;;5048569;28;20464;-80
2023/05/21 02:40:08;;;;;;;1.47;1.00;;;14.00;98.20;;;;;;5025151;28;20466;-79
2023/05/21 02:42:38;;;;;;;1.50;1.10;;;14.00;98.20;;;;;;5030368;28;20459;-80
2023/05/21 02:45:07;;;;;;;1.50;1.30;;;14.00;98.20;;;;;;5029037;28;20966;-79
2023/05/21 02:47:34;;;;;;;1.50;1.00;;;14.00;98.20;;;;;;5029022;28;20466;-78
2023/05/21 02:50:01;;;;;;;1.50;1.00;;;14.00;98.20;;;;;;5035435;28;20491;-77
2023/05/21 02:52:28;;;;;;;1.50;1.00;;;13.90;98.20;;;;;;5029204;28;20742;-77
2023/05/21 02:54:55;;;;;;;1.50;1.00;;;13.90;98.20;;;;;;5027060;28;20490;-77
2023/05/21 02:57:21;;;;;;;1.47;1.03;;;13.80;98.20;;;;;;5030386;28;20658;-78
2023/05/21 02:59:48;;;;;;;1.50;1.00;;;13.80;98.20;;;;;;5032677;28;20455;-77
2023/05/21 03:02:16;;;;;;;1.50;1.00;;;13.80;98.20;;;;;;5037697;28;20489;-77
2023/05/21 03:04:45;;;;;;;1.50;1.00;;;13.80;98.20;;;;;;5031406;28;20483;-81
2023/05/21 03:07:13;;;;;;;1.50;1.00;;;13.80;98.20;;;;;;5033913;28;20459;-82
2023/05/21 03:09:41;;;;;;;1.43;1.00;;;13.80;98.20;;;;;;5033883;28;20494;-82
2023/05/21 03:12:08;;;;;;;1.50;1.00;;;13.80;98.20;;;;;;5029427;28;20462;-79
2023/05/21 03:14:35;;;;;;;9.33;3.13;;;13.80;98.20;;;;;;5033147;28;20913;-81
2023/05/21 03:17:04;;;;;;;1.50;1.00;;;13.80;98.20;;;;;;5030862;28;20657;-80
2023/05/21 03:19:34;;;;;;;1.43;1.00;;;13.80;98.20;;;;;;5040945;28;20469;-79
2023/05/21 03:22:02;;;;;;;1.50;1.10;;;13.80;98.20;;;;;;5045657;28;20490;-80
2023/05/21 03:24:30;;;;;;;1.50;0.90;;;13.80;98.20;;;;;;5033484;28;20479;-80
2023/05/21 03:26:57;;;;;;;1.50;1.00;;;13.80;98.20;;;;;;5035011;28;20482;-82
2023/05/21 03:29:24;;;;;;;1.47;1.00;;;13.80;98.20;;;;;;5033366;28;20479;-80
2023/05/21 03:31:52;;;;;;;1.50;1.00;;;13.90;98.20;;;;;;5031950;28;20471;-81
2023/05/21 03:34:19;;;;;;;1.47;1.00;;;13.80;98.20;;;;;;5037112;28;20529;-81
2023/05/21 03:36:48;;;;;;;1.50;1.10;;;13.80;98.20;;;;;;5030329;28;20824;-81
2023/05/21 03:39:15;;;;;;;1.50;1.00;;;13.90;98.20;;;;;;5045515;28;20455;-81
2023/05/21 03:41:42;;;;;;;1.47;1.00;;;13.90;98.20;;;;;;5031634;28;20474;-81
2023/05/21 03:44:09;;;;;;;1.50;1.10;;;13.90;98.20;;;;;;5024656;28;20940;-80
2023/05/21 03:46:36;;;;;;;1.50;1.00;;;13.90;98.20;;;;;;5027416;28;20473;-81
2023/05/21 03:49:02;;;;;;;1.50;1.00;;;13.90;98.20;;;;;;5031249;28;20973;-81
2023/05/21 03:51:30;;;;;;;1.47;1.00;;;13.90;98.20;;;;;;5033136;28;20459;-81
2023/05/21 03:54:00;;;;;;;1.50;1.00;;;13.90;98.20;;;;;;5033050;28;20479;-81
2023/05/21 03:56:27;;;;;;;1.50;1.10;;;13.90;98.20;;;;;;5033541;28;20493;-82
2023/05/21 03:58:53;;;;;;;1.60;1.30;;;13.90;98.20;;;;;;5033166;28;20483;-78
2023/05/21 04:01:20;;;;;;;1.47;1.00;;;13.90;98.20;;;;;;5032264;28;20494;-84
2023/05/21 04:03:47;;;;;;;1.50;1.00;;;13.90;98.20;;;;;;5031622;28;20479;-82
2023/05/21 04:06:14;;;;;;;1.47;1.00;;;13.90;98.20;;;;;;5033113;28;20467;-80
2023/05/21 04:08:41;;;;;;;1.60;1.20;;;13.90;98.20;;;;;;5032098;28;20468;-82
2023/05/21 04:11:09;;;;;;;1.47;1.00;;;13.90;98.20;;;;;;5033587;28;20486;-79
2023/05/21 04:13:36;;;;;;;1.50;1.00;;;13.90;98.20;;;;;;5032413;28;20486;-80
2023/05/21 04:16:03;;;;;;;1.43;0.90;;;14.00;98.20;;;;;;5038233;28;20459;-80
2023/05/21 04:18:30;;;;;;;1.50;1.00;;;14.00;98.20;;;;;;5031471;28;20507;-80
2023/05/21 04:20:58;;;;;;;1.50;1.00;;;14.00;98.20;;;;;;5032789;28;20455;-79
2023/05/21 04:23:24;;;;;;;1.47;1.00;;;14.00;98.20;;;;;;5032161;28;20483;-79
2023/05/21 04:25:51;;;;;;;1.50;1.10;;;14.00;98.20;;;;;;5032603;28;20539;-81
2023/05/21 04:28:19;;;;;;;1.47;1.00;;;14.00;98.20;;;;;;5032586;28;20469;-80
2023/05/21 04:30:46;;;;;;;1.50;1.00;;;14.10;98.20;;;;;;5032309;28;20521;-81
2023/05/21 04:33:16;;;;;;;1.50;1.07;;;14.10;98.20;;;;;;5034089;28;20471;-81
2023/05/21 04:35:45;;;;;;;1.47;1.00;;;14.10;98.20;;;;;;5043718;28;20490;-81
2023/05/21 04:38:12;;;;;;;1.50;0.90;;;14.10;98.20;;;;;;5030365;28;20517;-81
2023/05/21 04:40:39;;;;;;;1.47;1.00;;;14.20;98.20;;;;;;5038181;28;20455;-82
2023/05/21 04:43:06;;;;;;;1.50;1.00;;;14.20;98.20;;;;;;5040287;28;20745;-80
2023/05/21 04:45:34;;;;;;;1.50;1.03;;;14.20;98.20;;;;;;5037687;28;20526;-80
2023/05/21 04:48:02;;;;;;;1.43;1.00;;;14.20;98.20;;;;;;5050057;28;20465;-81
2023/05/21 04:50:30;;;;;;;1.50;1.00;;;14.30;98.20;;;;;;5036233;28;20489;-81
2023/05/21 04:52:58;;;;;;;1.50;1.10;;;14.30;98.20;;;;;;5033991;28;20463;-81
2023/05/21 04:55:26;;;;;;;1.47;1.00;;;14.30;98.20;;;;;;5032180;28;21000;-80
2023/05/21 04:57:53;;;;;;;1.50;1.00;;;14.40;98.20;;;;;;5034014;28;20562;-81
2023/05/21 05:00:20;;;;;;;1.50;1.00;;;14.40;98.20;;;;;;5031103;28;21233;-81
2023/05/21 05:02:48;;;;;;;1.50;1.00;;;14.40;98.20;;;;;;5033820;28;20467;-81
2023/05/21 05:05:15;;;;;;;1.50;1.00;;;14.50;98.20;;;;;;5034173;28;20479;-80
2023/05/21 05:07:42;;;;;;;1.50;0.90;;;14.50;98.20;;;;;;5029338;28;20468;-80
2023/05/21 05:10:09;;;;;;;1.50;1.00;;;14.50;98.20;;;;;;5028087;28;20548;-80
2023/05/21 05:12:36;;;;;;;1.43;0.90;;;14.50;98.20;;;;;;5025845;28;20526;-79
2023/05/21 05:15:02;;;;;;;1.50;1.00;;;14.60;98.20;;;;;;5023593;28;21070;-82
2023/05/21 05:17:29;;;;;;;1.50;1.00;;;14.60;98.20;;;;;;5026431;28;20464;-81
2023/05/21 05:19:57;;;;;;;1.50;1.10;;;14.70;98.20;;;;;;5028048;28;21007;-81
2023/05/21 05:22:24;;;;;;;1.50;1.00;;;14.70;98.20;;;;;;5027898;28;20455;-81
2023/05/21 05:24:51;;;;;;;2.30;1.97;;;14.80;98.20;;;;;;5026992;28;20560;-82
2023/05/21 05:27:18;;;;;;;1.50;1.00;;;14.80;98.20;;;;;;5018025;28;20543;-78
2023/05/21 05:29:45;;;;;;;1.47;1.00;;;14.90;98.20;;;;;;5030517;28;20483;-81
2023/05/21 05:32:12;;;;;;;1.47;1.00;;;14.90;98.20;;;;;;5030794;28;20463;-79
2023/05/21 05:34:39;;;;;;;1.47;1.00;;;15.00;98.20;;;;;;5032650;28;20519;-83
2023/05/21 05:37:07;;;;;;;1.50;1.00;;;15.00;98.20;;;;;;5039381;28;20470;-81
2023/05/21 05:39:34;;;;;;;1.50;1.00;;;15.00;98.20;;;;;;5028596;28;20544;-79
2023/05/21 05:42:01;;;;;;;1.47;0.90;;;15.00;98.20;;;;;;5020821;28;20467;-80
2023/05/21 05:44:27;;;;;;;1.47;1.00;;;15.10;98.20;;;;;;5024235;28;20479;-79
2023/05/21 05:46:54;;;;;;;1.47;0.90;;;15.10;98.20;;;;;;5024044;28;20467;-78
2023/05/21 05:49:21;;;;;;;1.50;0.90;;;15.10;98.20;;;;;;5033799;28;20982;-79
2023/05/21 05:51:48;;;;;;;1.50;0.90;;;15.10;98.20;;;;;;5025744;28;21081;-80
2023/05/21 05:54:16;;;;;;;1.43;1.00;;;15.10;98.20;;;;;;5026750;28;20994;-80
2023/05/21 05:56:43;;;;;;;1.50;1.03;;;15.10;98.20;;;;;;5027372;28;20459;-78
2023/05/21 05:59:10;;;;;;;1.50;0.90;;;15.20;98.20;;;;;;5022188;28;20464;-78
2023/05/21 06:01:37;;;;;;;1.50;0.90;;;15.20;98.20;;;;;;5025550;28;20547;-78
2023/05/21 06:04:04;;;;;;;1.50;1.00;;;15.30;98.20;;;;;;5027917;28;20471;-80
2023/05/21 06:06:30;;;;;;;1.47;0.90;;;15.30;98.20;;;;;;5023472;28;20459;-79
2023/05/21 06:08:57;;;;;;;1.47;0.90;;;15.30;98.20;;;;;;5022565;28;20456;-77
2023/05/21 06:11:25;;;;;;;1.50;1.00;;;15.30;98.20;;;;;;5029068;28;20510;-79
2023/05/21 06:13:52;;;;;;;1.47;0.90;;;15.40;98.20;;;;;;5025897;28;20472;-82
2023/05/21 06:16:19;;;;;;;1.50;0.90;;;15.40;98.20;;;;;;5027286;28;20456;-81
2023/05/21 06:18:46;;;;;;;1.47;1.00;;;15.50;98.20;;;;;;5028509;28;20466;-81
2023/05/21 06:21:12;;;;;;;1.50;1.00;;;15.60;98.20;;;;;;5025413;28;20466;-80
2023/05/21 06:23:39;;;;;;;1.50;1.00;;;15.60;98.20;;;;;;5019138;28;20484;-82
2023/05/21 06:26:06;;;;;;;1.50;1.00;;;15.70;98.20;;;;;;5028486;28;20461;-84
2023/05/21 06:28:35;;;;;;;1.43;0.90;;;15.70;98.20;;;;;;5030481;28;20860;-78
2023/05/21 06:31:01;;;;;;;1.43;1.00;;;15.90;98.20;;;;;;5025834;28;20509;-83
2023/05/21 06:33:28;;;;;;;1.47;0.90;;;15.90;98.20;;;;;;5025155;28;20499;-79
2023/05/21 06:35:55;;;;;;;1.60;1.10;;;16.10;98.20;;;;;;5026988;28;20463;-79
2023/05/21 06:38:22;;;;;;;1.47;0.90;;;16.20;98.20;;;;;;5027241;28;20546;-77
2023/05/21 06:40:49;;;;;;;1.47;0.90;;;16.20;98.20;;;;;;5021803;28;20467;-79
2023/05/21 06:43:16;;;;;;;1.40;0.90;;;16.30;98.20;;;;;;5030779;28;20539;-79
2023/05/21 06:45:44;;;;;;;1.50;1.00;;;16.40;98.20;;;;;;5031470;28;20459;-79
2023/05/21 06:48:14;;;;;;;1.50;1.00;;;16.60;98.20;;;;;;5024079;28;20470;-80
2023/05/21 06:50:41;;;;;;;1.43;0.90;;;16.70;98.20;;;;;;5022234;28;20482;-78
2023/05/21 06:53:08;;;;;;;1.47;0.90;;;16.70;98.20;;;;;;5028367;28;20470;-79
2023/05/21 06:55:35;;;;;;;1.47;0.90;;;16.90;98.20;;;;;;5031180;28;20460;-81
2023/05/21 06:58:02;;;;;;;1.50;1.10;;;17.00;98.20;;;;;;5027474;28;20469;-78
2023/05/21 07:00:28;;;;;;;1.60;1.20;;;17.10;98.20;;;;;;5027964;28;20538;-82
2023/05/21 07:02:57;;;;;;;1.47;1.00;;;17.20;98.20;;;;;;5031682;28;20504;-80
2023/05/21 07:05:24;;;;;;;1.43;0.90;;;17.30;98.20;;;;;;5023048;28;20570;-78
2023/05/21 07:07:50;;;;;;;1.50;1.00;;;17.40;98.20;;;;;;5029861;28;20466;-82
2023/05/21 07:10:17;;;;;;;1.50;0.90;;;17.60;98.20;;;;;;5032108;28;20484;-79
2023/05/21 07:12:44;;;;;;;1.50;0.90;;;17.80;98.20;;;;;;5027181;28;20459;-79
2023/05/21 07:15:11;;;;;;;1.50;1.00;;;18.00;98.20;;;;;;5024411;28;21008;-79
2023/05/21 07:17:38;;;;;;;1.50;1.00;;;18.10;98.20;;;;;;5024248;28;20850;-77
2023/05/21 07:20:08;;;;;;;1.50;0.90;;;18.20;98.20;;;;;;5026282;28;20480;-80
2023/05/21 07:22:38;;;;;;;1.50;1.00;;;18.40;98.20;;;;;;5020136;28;20531;-78
2023/05/21 07:25:06;;;;;;;1.50;0.90;;;18.50;98.20;;;;;;5021249;28;20518;-78
2023/05/21 07:27:33;;;;;;;1.47;0.90;;;18.80;98.20;;;;;;5026353;28;20507;-79
2023/05/21 07:30:00;;;;;;;1.50;0.90;;;18.90;98.20;;;;;;5018244;28;20483;-78
2023/05/21 07:32:27;;;;;;;1.47;0.90;;;19.10;98.20;;;;;;5031051;28;20542;-79
2023/05/21 07:34:54;;;;;;;1.50;1.00;;;19.20;98.20;;;;;;5028511;28;20529;-78
2023/05/21 07:37:24;;;;;;;1.50;0.90;;;19.30;98.20;;;;;;5028824;28;20464;-80
2023/05/21 07:39:51;;;;;;;1.60;1.00;;;19.20;98.20;;;;;;5023944;28;20464;-78
2023/05/21 07:42:17;;;;;;;1.47;0.90;;;19.30;98.20;;;;;;5029126;28;20475;-79
2023/05/21 07:44:44;;;;;;;1.47;0.90;;;19.40;98.20;;;;;;5030455;28;20510;-80
2023/05/21 07:47:11;;;;;;;1.43;0.90;;;19.60;98.20;;;;;;5022185;28;20463;-79
2023/05/21 07:49:38;;;;;;;1.50;0.90;;;19.70;98.20;;;;;;5024648;28;21041;-78
2023/05/21 07:52:06;;;;;;;1.50;0.90;;;19.90;98.20;;;;;;5026429;28;20455;-79
2023/05/21 07:54:34;;;;;;;1.47;0.90;;;19.90;98.20;;;;;;5022672;28;20483;-79
2023/05/21 07:57:01;;;;;;;1.50;1.00;;;20.00;98.20;;;;;;5018906;28;20463;-78
2023/05/21 07:59:29;;;;;;;1.47;1.00;;;20.00;98.10;;;;;;5024031;28;20463;-80
2023/05/21 08:01:55;;;;;;;1.50;0.90;;;20.00;98.20;;;;;;5023304;28;20507;-78
2023/05/21 08:04:22;;;;;;;1.50;1.10;;;20.10;97.30;;;;;;5028182;28;20998;-78
2023/05/21 08:06:49;;;;;;;1.43;0.90;;;20.10;98.00;;;;;;5026769;28;20460;-79
2023/05/21 08:09:16;;;;;;;1.50;1.10;;;20.30;97.80;;;;;;5030565;28;20514;-81
2023/05/21 08:11:45;;;;;;;1.50;0.90;;;20.40;97.40;;;;;;5033878;28;20486;-80
2023/05/21 08:14:12;;;;;;;1.50;0.90;;;20.50;97.50;;;;;;5022124;28;20866;-78
2023/05/21 08:16:39;;;;;;;2.57;1.53;;;20.60;96.00;;;;;;5028743;28;20572;-81
2023/05/21 08:19:05;;;;;;;1.47;0.90;;;20.60;96.90;;;;;;5028732;28;20898;-81
2023/05/21 08:21:32;;;;;;;1.50;1.00;;;20.70;96.70;;;;;;5028183;28;20559;-78
2023/05/21 08:24:03;;;;;;;1.50;0.90;;;20.80;96.90;;;;;;5019181;28;20483;-79
2023/05/21 08:26:29;;;;;;;1.47;0.90;;;21.10;96.40;;;;;;5022230;28;20468;-79
2023/05/21 08:28:58;;;;;;;1.50;0.97;;;21.20;95.20;;;;;;5028175;28;20464;-82
2023/05/21 08:31:25;;;;;;;1.50;1.07;;;21.50;95.10;;;;;;5019833;28;20509;-80
2023/05/21 08:33:52;;;;;;;1.43;0.90;;;21.80;94.00;;;;;;5017984;28;20484;-79
2023/05/21 08:36:20;;;;;;;1.50;0.90;;;22.00;93.80;;;;;;5035225;28;20450;-80
2023/05/21 08:38:46;;;;;;;1.60;1.27;;;22.20;93.00;;;;;;5026968;28;20474;-79
2023/05/21 08:41:14;;;;;;;1.50;0.90;;;22.40;91.70;;;;;;5019975;28;20456;-78
2023/05/21 08:43:42;;;;;;;1.43;0.90;;;22.40;91.70;;;;;;5019972;28;20518;-78
2023/05/21 08:46:10;;;;;;;1.47;0.90;;;22.50;92.80;;;;;;5023970;28;20858;-81
2023/05/21 08:48:37;;;;;;;1.50;1.10;;;22.80;92.70;;;;;;5017988;28;20473;-78
2023/05/21 08:51:05;;;;;;;1.50;0.80;;;22.90;90.70;;;;;;5017377;28;20483;-81
2023/05/21 08:53:36;;;;;;;1.47;0.90;;;22.90;90.40;;;;;;5023345;28;20494;-81
2023/05/21 08:56:04;;;;;;;1.50;0.80;;;22.90;90.30;;;;;;5013447;28;20566;-77
2023/05/21 08:58:33;;;;;;;1.50;0.80;;;22.80;91.60;;;;;;5016013;28;20470;-81
2023/05/21 09:01:00;;;;;;;1.43;0.90;;;22.80;91.80;;;;;;5014073;28;20492;-79
2023/05/21 09:03:30;;;;;;;1.47;0.80;;;23.00;91.00;;;;;;5018792;28;20490;-80
2023/05/21 09:05:58;;;;;;;1.50;1.03;;;23.20;90.70;;;;;;5016584;28;20469;-79
2023/05/21 09:08:31;;;;;;;1.47;0.80;;;23.40;90.70;;;;;;5014848;28;20468;-80
2023/05/21 09:10:58;;;;;;;1.50;1.00;;;23.70;90.40;;;;;;5016024;28;20486;-78
2023/05/21 09:13:27;;;;;;;1.50;1.10;;;23.90;88.50;;;;;;5019455;28;21013;-78
2023/05/21 09:15:54;;;;;;;1.50;0.90;;;23.90;88.90;;;;;;5022693;28;20522;-80
2023/05/21 09:18:21;;;;;;;1.50;0.90;;;23.90;88.10;;;;;;5021182;28;20954;-81
2023/05/21 09:20:50;;;;;;;1.47;0.87;;;23.80;88.90;;;;;;5017912;28;20456;-77
2023/05/21 09:23:18;;;;;;;1.50;0.90;;;23.80;88.10;;;;;;5019409;28;20518;-78
2023/05/21 09:25:47;;;;;;;1.47;0.90;;;24.00;89.20;;;;;;5018980;28;20471;-80
2023/05/21 09:28:15;;;;;;;1.50;1.00;;;24.30;89.10;;;;;;5018765;28;20474;-80
2023/05/21 09:30:46;;;;;;;1.50;0.90;;;24.40;87.50;;;;;;5014098;28;20582;-80
2023/05/21 09:33:24;;;;;;;1.47;0.80;;;24.50;87.50;;;;;;5024820;28;20463;-81
2023/05/21 09:35:53;;;;;;;1.50;0.90;;;24.60;87.70;;;;;;5024105;28;20459;-80
2023/05/21 09:38:22;;;;;;;1.43;0.80;;;24.60;86.80;;;;;;5019638;28;20464;-81
2023/05/21 09:40:50;;;;;;;1.40;0.83;;;24.80;88.50;;;;;;5019304;28;20452;-81
2023/05/21 09:43:17;;;;;;;2.17;1.87;;;25.10;88.30;;;;;;5020979;28;20959;-81
2023/05/21 09:45:52;;;;;;;1.47;0.80;;;25.20;86.80;;;;;;5019229;28;20526;-79
2023/05/21 09:48:33;;;;;;;1.60;1.03;;;25.30;86.70;;;;;;5017189;28;20517;-82
2023/05/21 09:51:10;;;;;;;1.47;0.80;;;25.40;86.10;;;;;;5023347;28;21073;-79
2023/05/21 09:53:42;;;;;;;1.47;0.90;;;25.50;86.00;;;;;;5019837;28;20540;-81
2023/05/21 09:56:10;;;;;;;1.50;0.87;;;25.50;85.40;;;;;;5013548;28;20490;-79
2023/05/21 09:58:38;;;;;;;1.47;0.80;;;25.50;84.30;;;;;;5013996;28;20463;-78
2023/05/21 10:01:06;;;;;;;1.43;0.80;;;25.60;85.90;;;;;;5018386;28;20463;-80
2023/05/21 10:03:36;;;;;;;1.50;0.90;;;25.70;84.90;;;;;;5017024;28;20497;-79
2023/05/21 10:06:04;;;;;;;1.47;0.80;;;25.80;85.70;;;;;;5018262;28;20534;-77
2023/05/21 10:08:33;;;;;;;1.50;0.90;;;26.00;84.90;;;;;;5016979;28;20473;-80
2023/05/21 10:11:02;;;;;;;1.47;0.80;;;26.20;84.00;;;;;;5014321;28;20490;-79
2023/05/21 10:13:30;;;;;;;1.47;0.80;;;26.30;84.00;;;;;;5016330;28;20908;-78
2023/05/21 10:16:02;;;;;;;1.47;0.90;;;26.50;84.00;;;;;;5018881;28;20516;-78
2023/05/21 10:18:30;;;;;;;1.47;0.80;;;26.70;82.10;;;;;;5017412;28;20542;-81
2023/05/21 10:20:59;;;;;;;3.60;2.03;;;26.80;82.30;;;;;;5013095;28;20933;-79
2023/05/21 10:23:28;;;;;;;2.27;1.20;;;26.80;82.90;;;;;;5022206;28;20487;-79
2023/05/21 10:25:57;;;;;;;1.50;0.80;;;26.80;82.70;;;;;;5025907;28;20462;-79
2023/05/21 10:28:24;;;;;;;1.50;0.80;;;26.70;81.60;;;;;;5015484;28;20514;-79
2023/05/21 10:30:53;;;;;;;1.50;1.03;;;26.70;82.10;;;;;;5009034;28;20490;-78
2023/05/21 10:33:23;;;;;;;1.47;0.97;;;26.70;82.90;;;;;;5017647;28;20466;-79
2023/05/21 10:35:52;;;;;;;1.50;1.00;;;26.80;83.50;;;;;;5013857;28;21151;-78
2023/05/21 10:38:20;;;;;;;2.27;1.77;;;26.90;82.10;;;;;;5014351;28;20462;-79
2023/05/21 10:40:49;;;;;;;1.60;1.13;;;27.00;82.60;;;;;;5012128;28;20463;-79
2023/05/21 10:43:41;;;;;;;1.50;0.80;;;27.30;82.90;;;;;;5017853;28;20475;-79
2023/05/21 10:46:53;;;;;;;1.60;1.00;;;27.50;81.20;;;;;;5016290;28;20588;-81
2023/05/21 10:49:59;;;;;;;1.47;0.80;;;27.60;80.80;;;;;;5018082;28;20542;-80
2023/05/21 10:52:44;;;;;;;1.40;0.80;;;27.60;80.80;;;;;;5018691;28;20491;-80
2023/05/21 10:55:26;;;;;;;1.50;0.80;;;27.50;81.80;;;;;;5018088;28;21027;-81
2023/05/21 10:58:35;;;;;;;1.50;0.80;;;27.60;81.60;;;;;;5016073;28;20956;-79
2023/05/21 11:01:04;;;;;;;1.47;0.80;;;27.70;80.00;;;;;;5012355;28;20454;-79
2023/05/21 11:03:33;;;;;;;1.50;0.80;;;27.60;80.70;;;;;;5017273;28;20481;-80
2023/05/21 11:06:04;;;;;;;1.43;0.80;;;27.80;80.10;;;;;;5015720;28;21289;-79
2023/05/21 11:08:34;;;;;;;1.57;0.90;;;28.00;81.20;;;;;;5019134;28;20549;-79
2023/05/21 11:11:02;;;;;;;1.47;0.80;;;28.10;79.90;;;;;;5018627;28;20478;-79
2023/05/21 11:13:47;;;;;;;1.50;0.90;;;28.30;80.70;;;;;;5014747;28;21201;-78
2023/05/21 11:16:17;;;;;;;1.50;1.00;;;28.60;78.20;;;;;;5009441;28;20550;-80
2023/05/21 11:19:01;;;;;;;1.47;0.80;;;28.70;78.60;;;;;;5012752;28;20487;-79
2023/05/21 11:21:34;;;;;;;1.50;0.90;;;28.70;79.00;;;;;;5019119;28;20534;-80
2023/05/21 11:24:03;;;;;;;1.50;0.90;;;28.50;79.10;;;;;;5020672;28;20482;-78
2023/05/21 11:27:00;;;;;;;1.47;0.83;;;28.30;78.50;;;;;;5014548;28;20470;-80
2023/05/21 11:29:40;;;;;;;1.43;0.80;;;28.10;79.50;;;;;;5013052;28;20470;-79
2023/05/21 11:32:09;;;;;;;1.67;1.20;;;28.20;80.10;;;;;;5013526;28;20487;-79
2023/05/21 11:34:42;;;;;;;1.50;0.80;;;28.40;80.70;;;;;;5018951;28;20471;-83
2023/05/21 11:37:33;;;;;;;1.50;1.10;;;28.60;78.70;;;;;;5019832;28;20479;-80
2023/05/21 11:40:24;;;;;;;1.47;0.90;;;28.60;78.50;;;;;;5016167;28;20472;-78
2023/05/21 11:42:53;;;;;;;1.50;0.90;;;28.70;79.20;;;;;;5017671;28;20463;-80
2023/05/21 11:45:21;;;;;;;1.50;0.80;;;28.80;77.40;;;;;;5011040;28;20503;-81
2023/05/21 11:47:52;;;;;;;1.47;0.80;;;28.80;78.50;;;;;;5013176;28;20471;-79
2023/05/21 11:50:19;;;;;;;1.47;0.80;;;28.80;78.40;;;;;;5009664;28;20466;-78
2023/05/21 11:52:47;;;;;;;1.40;0.80;;;28.90;79.90;;;;;;5009608;28;21012;-81
2023/05/21 11:55:16;;;;;;;1.47;0.80;;;29.00;79.40;;;;;;5010577;28;20511;-80
2023/05/21 11:57:46;;;;;;;1.47;0.80;;;29.00;78.40;;;;;;5013418;28;20465;-79
2023/05/21 12:00:15;;;;;;;1.47;0.83;;;29.00;79.20;;;;;;5012051;28;20219;-79
2023/05/21 12:02:47;;;;;;;1.70;1.57;;;29.10;78.80;;;;;;5010829;28;20458;-85
2023/05/21 12:05:16;;;;;;;1.50;1.00;;;29.00;78.50;;;;;;5018173;28;20518;-81
2023/05/21 12:07:47;;;;;;;1.50;0.80;;;29.00;78.60;;;;;;5012121;28;20208;-80
2023/05/21 12:10:14;;;;;;;1.47;0.80;;;29.10;77.30;;;;;;5009885;28;20790;-82
2023/05/21 12:12:41;;;;;;;1.47;0.80;;;29.20;77.40;;;;;;5015104;28;20512;-80
2023/05/21 12:15:11;;;;;;;3.10;1.30;;;29.20;78.20;;;;;;5012335;28;20229;-80
2023/05/21 12:17:38;;;;;;;1.50;0.90;;;29.20;76.40;;;;;;5012312;28;20208;-80
2023/05/21 12:20:09;;;;;;;1.60;1.43;;;29.10;77.90;;;;;;5014827;28;20466;-81
2023/05/21 12:22:43;;;;;;;1.70;1.10;;;28.80;77.50;;;;;;5014612;28;20577;-80
2023/05/21 12:25:10;;;;;;;1.43;0.80;;;28.60;77.80;;;;;;5012423;28;20506;-82
2023/05/21 12:27:38;;;;;;;1.40;0.80;;;28.40;78.40;;;;;;5016060;28;20538;-81
2023/05/21 12:30:07;;;;;;;1.43;0.80;;;28.40;80.20;;;;;;5014970;28;20466;-81
2023/05/21 12:32:34;;;;;;;1.43;0.80;;;28.50;78.10;;;;;;5008934;28;20563;-79
2023/05/21 12:35:01;;;;;;;1.50;0.80;;;28.60;78.40;;;;;;5013541;28;20578;-79
2023/05/21 12:37:31;;;;;;;1.60;1.20;;;28.80;78.00;;;;;;5014208;28;20965;-81
2023/05/21 12:40:03;;;;;;;1.40;0.80;;;28.90;78.20;;;;;;5014034;28;20464;-82
2023/05/21 12:42:33;;;;;;;1.50;1.00;;;29.00;78.40;;;;;;5016712;28;20459;-84
2023/05/21 12:45:01;;;;;;;1.50;0.80;;;28.90;77.30;;;;;;5013476;28;20976;-80
2023/05/21 12:47:28;;;;;;;1.47;0.80;;;28.80;76.70;;;;;;5010509;28;20495;-79
2023/05/21 12:50:00;;;;;;;1.43;0.80;;;28.70;77.00;;;;;;5012762;28;20485;-81
2023/05/21 12:52:27;;;;;;;1.57;1.23;;;28.70;77.60;;;;;;5019997;28;20522;-82
2023/05/21 12:54:56;;;;;;;1.47;0.80;;;28.60;77.10;;;;;;5020028;28;20486;-78
2023/05/21 12:57:26;;;;;;;1.50;1.00;;;28.40;76.90;;;;;;5017356;28;20493;-82